Hauptseite
METAR-TAF:

METAR-TAF

Flughäfen :

Harbin, China

Breite: 45-45N, Länge: 126-46E, Höhe: 143 m

Beobachtung

Neuester Wetterbericht von vor 49 Minuten, um 21:00 UTC
Wind 6 kt aus Süd/Südost, variierte zwischen Ost/Südost und Süd/Südwest
Temperatur 10°C
Luftfeuchtigkeit 82%
Luftdruck 1017 hPa
Sichtweite: 6000 m

METAR: ZYHB 202100Z 16003MPS 120V200 6000 NSC 10/07 Q1017 NOSIG

Zeit: 05:49 (21:49 UTC)

Prognose

Neuester Wetterbericht von vor 6 Stunden und 47 Minuten, um 15:02 UTC
Gültige Prognose vom 20 um 18 UTC bis 21 um 18 UTC
Wind 8 kt aus Süd
Sichtweite: 6000 m
Aufgelockert bewölkt in der Höhe von 3000 ft
Übergehend zu
vom 21 um 00 UTC bis 21 um 02 UTC
Wind 17 kt aus Süd/Südwest, Böen bis zu 33 kt

TAF: ZYHB 201502Z 2018/2118 18004MPS 6000 SCT030 TX28/2106Z TN11/2021Z BECMG 2100/2102 21009G17MPS

Wetterbeobachtungen und Prognosen von mehr als 4000 Flughäfen (METAR und TAF Bericht).

Die verfügbaren Stationen werden durch gelbe und rote Markierungen auf der Karte dargestellt.

Führen Sie die Maus auf sie, um den Namen der Station zu sehen.

Darauf klicken, um die Beobachtung von Wetterbeobachtungen und Prognosen zu sehen.

Um die Karte zu ändern : klicken Sie auf den grünen Tasten mit einem schwarzen Kreuz Zum Vergrößern, auf den grünen Button mit einem Gedankenstrich zu verkleinern, oder auf die grünen Pfeile für benachbarte Karten.


METAR-TAF: